Time;durP1;ratioP1;P1;durP2;ratioP2;P2;SDS_P1;SDS_P2;PMS_P1;PMS_P2;Temp;Humidity;BMP_temperature;BMP_pressure;BME280_temperature;BME280_humidity;BME280_pressure;Samples;Min_cycle;Max_cycle;Signal;HPM_P1;HPM_P2
2023/04/12 00:01:33;;;;;;;12.20;3.78;;;;;;;8.53;100.00;162794.44;5070657;28;20035;-64
2023/04/12 00:03:58;;;;;;;16.13;4.43;;;;;;;8.40;100.00;162762.06;5070532;28;20028;-64
2023/04/12 00:06:24;;;;;;;13.15;5.93;;;;;;;8.59;100.00;162809.28;5069335;28;20508;-64
2023/04/12 00:08:50;;;;;;;8.77;4.22;;;;;;;8.61;100.00;162814.63;5070018;28;20419;-64
2023/04/12 00:11:15;;;;;;;23.10;5.43;;;;;;;8.65;100.00;162825.44;5069385;28;20071;-64
2023/04/12 00:13:41;;;;;;;7.82;4.57;;;;;;;8.62;100.00;162817.34;5070957;28;20403;-63
2023/04/12 00:16:08;;;;;;;13.23;4.65;;;;;;;8.60;100.00;162811.97;5068762;28;20109;-64
2023/04/12 00:18:33;;;;;;;12.55;4.35;;;;;;;8.61;100.00;162814.63;5070857;28;20036;-64
2023/04/12 00:20:58;;;;;;;9.75;3.70;;;;;;;8.63;100.00;162821.41;5068903;28;20041;-63
2023/04/12 00:23:24;;;;;;;13.35;4.07;;;;;;;8.67;100.00;162830.84;5070135;28;20483;-64
2023/04/12 00:25:49;;;;;;;8.27;4.03;;;;;;;8.62;100.00;162817.34;5069168;28;20111;-64
2023/04/12 00:28:15;;;;;;;24.98;5.47;;;;;;;8.62;100.00;162817.34;5070487;28;20016;-64
2023/04/12 00:30:40;;;;;;;17.63;4.70;;;;;;;8.64;100.00;162824.06;5068909;28;20044;-64
2023/04/12 00:33:06;;;;;;;12.80;3.83;;;;;;;8.69;100.00;162837.59;5070119;28;20052;-64
2023/04/12 00:35:31;;;;;;;14.10;6.43;;;;;;;8.70;100.00;162838.91;5068727;28;20037;-63
2023/04/12 00:37:56;;;;;;;10.07;3.22;;;;;;;8.70;100.00;162838.91;5070071;28;20036;-64
2023/04/12 00:40:22;;;;;;;20.75;5.30;;;;;;;8.68;100.00;162834.88;5068924;28;20067;-62
2023/04/12 00:42:47;;;;;;;9.25;3.53;;;;;;;8.66;100.00;162828.16;5074525;28;20467;-61
2023/04/12 00:45:13;;;;;;;19.00;6.70;;;;;;;8.75;100.00;162851.06;5072420;28;20036;-62
2023/04/12 00:47:42;;;;;;;7.28;3.58;;;;;;;8.74;100.00;162849.72;5074569;28;20028;-61
2023/04/12 00:50:08;;;;;;;;;;;;;;;8.75;100.00;162852.38;5073042;28;20039;-63
2023/04/12 00:52:33;;;;;;;4.45;2.75;;;;;;;8.69;100.00;162836.22;5074318;28;19912;-63
2023/04/12 00:55:09;;;;;;;19.55;5.15;;;;;;;8.72;100.00;162844.31;5072472;28;20079;-62
2023/04/12 00:57:36;;;;;;;7.63;3.80;;;;;;;8.70;100.00;162838.91;5074675;28;20017;-62
2023/04/12 01:00:07;;;;;;;12.35;4.32;;;;;;;8.71;100.00;162841.63;5072208;28;20044;-63
2023/04/12 01:02:34;;;;;;;16.13;5.40;;;;;;;8.62;100.00;162817.34;5074338;28;20039;-62
2023/04/12 01:05:00;;;;;;;12.40;4.82;;;;;;;8.50;100.00;162787.72;5072018;28;20530;-62
2023/04/12 01:07:37;;;;;;;4.82;3.40;;;;;;;8.41;100.00;162763.38;5074064;28;20380;-62
2023/04/12 01:10:46;;;;;;;9.68;3.35;;;;;;;8.25;100.00;162722.94;5072446;28;20032;-62
2023/04/12 01:13:31;;;;;;;5.90;2.67;;;;;;;8.09;100.00;162679.81;5031399;28;20075;-62
2023/04/12 01:16:14;;;;;;;5.75;2.55;;;;;;;8.03;100.00;162663.63;5013750;28;20089;-62
2023/04/12 01:18:44;;;;;;;5.05;3.40;;;;;;;7.88;100.00;162625.91;5030815;28;20056;-62
2023/04/12 01:21:15;;;;;;;8.48;2.97;;;;;;;7.82;100.00;162608.44;5047368;28;20045;-62
2023/04/12 01:23:49;;;;;;;7.80;4.45;;;;;;;7.80;100.00;162604.34;5060107;28;20632;-62
2023/04/12 01:26:32;;;;;;;8.80;3.90;;;;;;;7.67;100.00;162569.31;5073060;28;20052;-62
2023/04/12 01:28:59;;;;;;;8.45;2.83;;;;;;;7.75;100.00;162590.88;5092357;28;20081;-62
2023/04/12 01:31:28;;;;;;;6.77;3.60;;;;;;;7.69;100.00;162574.72;5094052;28;20028;-62
2023/04/12 01:33:55;;;;;;;10.73;2.60;;;;;;;7.65;100.00;162563.94;5093244;28;20479;-62
2023/04/12 01:36:23;;;;;;;15.85;4.65;;;;;;;7.62;100.00;162558.56;5091700;28;20044;-62
2023/04/12 01:38:48;;;;;;;3.85;3.30;;;;;;;7.59;100.00;162550.47;5093945;28;20108;-62
2023/04/12 01:41:14;;;;;;;9.30;3.08;;;;;;;7.62;100.00;162558.56;5091842;28;20126;-63
2023/04/12 01:43:41;;;;;;;8.35;4.18;;;;;;;7.58;100.00;162547.75;5093321;28;20020;-62
2023/04/12 01:46:07;;;;;;;5.53;3.58;;;;;;;7.59;100.00;162550.47;5092022;28;20040;-62
2023/04/12 01:48:33;;;;;;;13.40;5.63;;;;;;;7.57;100.00;162545.06;5092148;28;20016;-62
2023/04/12 01:51:09;;;;;;;6.78;3.28;;;;;;;7.55;100.00;162538.34;5089609;28;20109;-62
2023/04/12 01:54:10;;;;;;;15.68;5.22;;;;;;;7.53;100.00;162534.31;5093221;28;20040;-62
2023/04/12 01:56:38;;;;;;;4.82;3.10;;;;;;;7.50;100.00;162526.19;5092041;28;20102;-62
2023/04/12 01:59:04;;;;;;;9.85;4.07;;;;;;;7.49;100.00;162523.50;5091123;28;20032;-63
2023/04/12 02:01:30;;;;;;;14.15;4.88;;;;;;;7.49;100.00;162522.19;5093216;28;20117;-62
2023/04/12 02:03:59;;;;;;;6.78;3.42;;;;;;;7.46;100.00;162515.44;5091731;28;20032;-62
2023/04/12 02:06:25;;;;;;;12.93;3.92;;;;;;;7.46;100.00;162515.44;5078652;28;20059;-64
2023/04/12 02:08:57;;;;;;;13.23;4.78;;;;;;;7.35;100.00;162487.16;5072916;28;20025;-64
2023/04/12 02:11:23;;;;;;;9.05;3.00;;;;;;;7.39;100.00;162496.59;5071578;28;20044;-64
2023/04/12 02:13:48;;;;;;;10.52;3.25;;;;;;;7.38;100.00;162495.22;5072856;28;20032;-64
2023/04/12 02:16:13;;;;;;;9.05;4.75;;;;;;;7.35;100.00;162487.16;5071116;28;20044;-64
2023/04/12 02:18:40;;;;;;;6.35;3.72;;;;;;;7.32;100.00;162477.75;5072587;28;20017;-65
2023/04/12 02:21:06;;;;;;;10.68;4.18;;;;;;;7.27;100.00;162466.94;5070576;28;20040;-64
2023/04/12 02:23:31;;;;;;;6.10;3.50;;;;;;;7.22;100.00;162453.47;5072575;28;20502;-64
2023/04/12 02:25:56;;;;;;;9.68;4.20;;;;;;;7.22;100.00;162453.47;5070859;28;20040;-64
2023/04/12 02:28:22;;;;;;;6.20;3.67;;;;;;;7.19;100.00;162444.06;5072563;28;20033;-63
2023/04/12 02:30:47;;;;;;;19.52;4.18;;;;;;;7.21;100.00;162450.78;5071050;28;20404;-63
2023/04/12 02:33:14;;;;;;;13.32;5.32;;;;;;;7.20;100.00;162448.06;5072171;28;20471;-64
2023/04/12 02:35:40;;;;;;;18.98;4.57;;;;;;;7.22;100.00;162452.16;5070752;28;20052;-63
2023/04/12 02:38:07;;;;;;;9.02;4.00;;;;;;;7.26;100.00;162462.91;5071952;28;20020;-64
2023/04/12 02:40:41;;;;;;;11.35;3.88;;;;;;;7.26;100.00;162464.22;5070986;28;20064;-64
2023/04/12 02:43:07;;;;;;;11.07;4.13;;;;;;;7.27;100.00;162465.63;5071492;28;20086;-64
2023/04/12 02:45:33;;;;;;;4.55;3.45;;;;;;;7.27;100.00;162466.94;5070806;28;20036;-64
2023/04/12 02:47:58;;;;;;;22.55;5.78;;;;;;;7.27;100.00;162465.63;5072273;28;20020;-64
2023/04/12 02:50:23;;;;;;;16.10;5.38;;;;;;;7.29;100.00;162472.34;5070272;28;20044;-64
2023/04/12 02:52:49;;;;;;;14.27;5.88;;;;;;;7.35;100.00;162487.16;5070708;28;20024;-64
2023/04/12 02:55:14;;;;;;;6.82;4.30;;;;;;;7.35;100.00;162485.78;5070504;28;20398;-64
2023/04/12 02:57:40;;;;;;;8.82;4.50;;;;;;;7.34;100.00;162484.47;5071818;28;20221;-64
2023/04/12 03:00:10;;;;;;;10.93;6.22;;;;;;;7.28;100.00;162469.63;5052467;28;20056;-63
2023/04/12 03:02:36;;;;;;;14.98;6.03;;;;;;;7.33;100.00;162480.44;5067276;28;20050;-63
2023/04/12 03:05:02;;;;;;;10.63;3.53;;;;;;;7.33;100.00;162480.44;5069099;28;20503;-63
2023/04/12 03:07:29;;;;;;;7.72;3.40;;;;;;;7.30;100.00;162473.66;5071823;28;20471;-63
2023/04/12 03:09:54;;;;;;;8.23;4.00;;;;;;;7.34;100.00;162483.09;5070275;28;20078;-62
2023/04/12 03:12:20;;;;;;;6.82;4.00;;;;;;;7.25;100.00;162461.59;5071464;28;20033;-62
2023/04/12 03:14:45;;;;;;;6.05;3.75;;;;;;;7.28;100.00;162468.31;5070335;28;20043;-63
2023/04/12 03:17:10;;;;;;;7.80;4.35;;;;;;;7.24;100.00;162458.88;5071331;28;20028;-63
2023/04/12 03:19:36;;;;;;;8.77;3.47;;;;;;;7.23;100.00;162456.19;5069702;28;20044;-64
2023/04/12 03:22:03;;;;;;;7.97;5.38;;;;;;;7.23;100.00;162454.81;5071317;28;20024;-63
2023/04/12 03:24:32;;;;;;;8.32;4.63;;;;;;;7.26;100.00;162464.22;5068832;28;20523;-65
2023/04/12 03:26:58;;;;;;;17.70;4.78;;;;;;;7.25;100.00;162461.59;5051243;28;20070;-64
2023/04/12 03:29:23;;;;;;;7.25;5.22;;;;;;;7.25;100.00;162461.59;5064535;28;20044;-62
2023/04/12 03:31:48;;;;;;;11.80;4.85;;;;;;;7.28;100.00;162469.63;5071225;28;20027;-62
2023/04/12 03:34:14;;;;;;;9.10;4.25;;;;;;;7.29;100.00;162471.00;5069541;28;20021;-62
2023/04/12 03:36:40;;;;;;;7.72;4.63;;;;;;;7.30;100.00;162475.03;5071300;28;20029;-62
2023/04/12 03:39:05;;;;;;;9.13;3.60;;;;;;;7.36;100.00;162488.50;5069922;28;20028;-62
2023/04/12 03:41:31;;;;;;;7.07;3.47;;;;;;;7.37;100.00;162491.19;5071096;28;20467;-62
2023/04/12 03:43:56;;;;;;;9.30;3.83;;;;;;;7.37;100.00;162491.19;5070473;28;20032;-62
2023/04/12 03:46:21;;;;;;;8.18;2.75;;;;;;;7.39;100.00;162496.59;5069237;28;20692;-64
2023/04/12 03:48:48;;;;;;;4.97;2.75;;;;;;;7.40;100.00;162499.28;5071004;28;20028;-61
2023/04/12 03:51:14;;;;;;;4.20;3.00;;;;;;;7.40;100.00;162499.28;5069143;28;20086;-61
2023/04/12 03:53:40;;;;;;;9.95;2.90;;;;;;;7.43;100.00;162507.34;5071455;28;20024;-61
2023/04/12 03:56:06;;;;;;;5.50;3.15;;;;;;;7.44;100.00;162511.44;5069381;28;20036;-61
2023/04/12 03:58:32;;;;;;;7.85;4.07;;;;;;;7.46;100.00;162516.78;5070684;28;20518;-62
2023/04/12 04:01:00;;;;;;;10.82;4.20;;;;;;;7.50;100.00;162524.88;5069068;28;20043;-63
2023/04/12 04:03:28;;;;;;;4.10;3.40;;;;;;;7.50;100.00;162526.19;5070939;28;20032;-62
2023/04/12 04:05:54;;;;;;;5.90;2.57;;;;;;;7.46;100.00;162516.78;5068934;28;20075;-62
2023/04/12 04:08:19;;;;;;;5.68;3.03;;;;;;;7.55;100.00;162538.34;5070952;28;20439;-62
2023/04/12 04:10:45;;;;;;;3.90;2.83;;;;;;;7.59;100.00;162550.47;5083918;28;20138;-64
2023/04/12 04:13:10;;;;;;;4.90;3.55;;;;;;;7.56;100.00;162542.38;5088545;28;20028;-62
2023/04/12 04:15:35;;;;;;;9.18;2.70;;;;;;;7.53;100.00;162532.94;5073275;28;20063;-62
2023/04/12 04:18:01;;;;;;;9.63;4.68;;;;;;;7.50;100.00;162526.19;5071675;28;20472;-62
2023/04/12 04:20:26;;;;;;;9.45;4.50;;;;;;;7.52;100.00;162531.59;5071925;28;20048;-62
2023/04/12 04:22:52;;;;;;;7.68;4.43;;;;;;;7.48;100.00;162520.84;5070409;28;20443;-62
2023/04/12 04:25:18;;;;;;;6.30;2.80;;;;;;;7.49;100.00;162523.50;5069179;28;20454;-61
2023/04/12 04:27:44;;;;;;;6.85;3.55;;;;;;;7.49;100.00;162523.50;5070668;28;20020;-61
2023/04/12 04:30:11;;;;;;;4.60;4.10;;;;;;;7.51;100.00;162528.91;5069163;28;20066;-62
2023/04/12 04:32:40;;;;;;;6.00;4.18;;;;;;;7.47;100.00;162518.16;5088390;28;20020;-62
2023/04/12 04:35:06;;;;;;;8.68;2.88;;;;;;;7.54;100.00;162537.00;5077844;28;20036;-62
2023/04/12 04:37:34;;;;;;;7.70;2.78;;;;;;;7.53;100.00;162534.31;5089442;28;20517;-62
2023/04/12 04:40:00;;;;;;;8.48;4.00;;;;;;;7.54;100.00;162537.00;5088971;28;20487;-60
2023/04/12 04:42:25;;;;;;;5.00;2.75;;;;;;;7.52;100.00;162531.59;5090300;28;20027;-59
2023/04/12 04:44:51;;;;;;;5.82;3.15;;;;;;;7.52;100.00;162530.28;5089112;28;20032;-59
2023/04/12 04:47:16;;;;;;;9.38;4.32;;;;;;;7.55;100.00;162538.34;5091011;28;20020;-59
2023/04/12 04:49:43;;;;;;;4.22;2.88;;;;;;;7.49;100.00;162522.19;5088937;28;20029;-59
2023/04/12 04:52:09;;;;;;;7.28;3.45;;;;;;;7.49;100.00;162523.50;5090423;28;20034;-59
2023/04/12 04:54:34;;;;;;;6.95;4.05;;;;;;;7.42;100.00;162504.66;5089144;28;20036;-58
2023/04/12 04:57:00;;;;;;;5.63;3.28;;;;;;;7.35;100.00;162487.16;5089956;28;20457;-59
2023/04/12 04:59:26;;;;;;;5.05;3.20;;;;;;;7.21;100.00;162450.78;5089120;28;20032;-58
2023/04/12 05:01:51;;;;;;;7.22;4.10;;;;;;;7.07;100.00;162413.06;5090397;28;20494;-59
2023/04/12 05:04:17;;;;;;;5.38;4.03;;;;;;;7.01;100.00;162396.91;5088521;28;20097;-59
2023/04/12 05:06:42;;;;;;;5.00;3.08;;;;;;;7.01;100.00;162396.91;5090462;28;20081;-60
2023/04/12 05:09:07;;;;;;;5.15;3.50;;;;;;;6.95;100.00;162383.47;5088752;28;20078;-58
2023/04/12 05:11:33;;;;;;;7.68;3.90;;;;;;;6.90;100.00;162368.66;5090048;28;20038;-59
2023/04/12 05:13:58;;;;;;;8.55;4.55;;;;;;;6.86;100.00;162359.22;5088610;28;20024;-58
2023/04/12 05:16:23;;;;;;;4.22;3.67;;;;;;;6.82;100.00;162349.78;5090512;28;20433;-59
2023/04/12 05:18:49;;;;;;;3.95;3.58;;;;;;;6.79;100.00;162340.38;5090335;28;20130;-59
2023/04/12 05:21:14;;;;;;;4.38;3.30;;;;;;;6.77;100.00;162334.97;5088361;28;20044;-58
2023/04/12 05:23:45;;;;;;;6.15;4.15;;;;;;;6.71;100.00;162318.81;5090426;28;20036;-59
2023/04/12 05:26:11;;;;;;;7.70;5.00;;;;;;;6.72;100.00;162322.84;5088108;28;20142;-59
2023/04/12 05:28:36;;;;;;;12.10;4.05;;;;;;;6.71;100.00;162318.81;5093242;28;20024;-59
2023/04/12 05:31:02;;;;;;;7.95;4.55;;;;;;;6.67;100.00;162310.72;5092391;28;20133;-59
2023/04/12 05:33:28;;;;;;;4.38;3.72;;;;;;;6.64;100.00;162302.69;5093460;28;20569;-59
2023/04/12 05:35:53;;;;;;;8.75;4.00;;;;;;;6.58;100.00;162286.53;5092054;28;20044;-58
2023/04/12 05:38:18;;;;;;;4.35;3.40;;;;;;;6.60;100.00;162291.88;5094142;28;20032;-59
2023/04/12 05:40:44;;;;;;;8.70;5.50;;;;;;;6.62;100.00;162295.94;5091881;28;20649;-59
2023/04/12 05:43:13;;;;;;;5.15;3.17;;;;;;;6.59;100.00;162287.84;5078454;28;20111;-58
2023/04/12 05:45:38;;;;;;;;;;;;;;;6.60;100.00;162291.88;5072502;28;20664;-58
2023/04/12 05:48:04;;;;;;;9.13;4.70;;;;;;;6.45;100.00;162251.47;5073281;28;19908;-58
2023/04/12 05:50:30;;;;;;;9.27;4.65;;;;;;;6.56;100.00;162281.13;5071717;28;20040;-58
2023/04/12 05:52:55;;;;;;;10.68;4.45;;;;;;;6.57;100.00;162283.81;5073049;28;20036;-59
2023/04/12 05:55:21;;;;;;;5.78;3.92;;;;;;;6.54;100.00;162275.72;5071370;28;20048;-59
2023/04/12 05:57:46;;;;;;;5.25;3.88;;;;;;;6.54;100.00;162275.72;5073428;28;20021;-59
2023/04/12 06:00:15;;;;;;;7.03;5.13;;;;;;;6.56;100.00;162281.13;5071498;28;20036;-58
2023/04/12 06:02:41;;;;;;;6.85;3.88;;;;;;;6.57;100.00;162282.44;5072561;28;20541;-59
2023/04/12 06:05:08;;;;;;;5.13;4.40;;;;;;;6.62;100.00;162295.94;5071315;28;20040;-58
2023/04/12 06:07:33;;;;;;;11.60;5.38;;;;;;;6.67;100.00;162310.72;5073338;28;20078;-58
2023/04/12 06:09:58;;;;;;;4.38;3.90;;;;;;;6.73;100.00;162324.22;5071021;28;20028;-59
2023/04/12 06:12:24;;;;;;;5.68;3.92;;;;;;;6.73;100.00;162324.22;5072850;28;20028;-58
2023/04/12 06:14:49;;;;;;;8.93;4.22;;;;;;;6.79;100.00;162340.38;5071331;28;20033;-58
2023/04/12 06:17:14;;;;;;;13.85;3.63;;;;;;;6.77;100.00;162334.97;5072387;28;20029;-59
2023/04/12 06:19:40;;;;;;;7.80;5.30;;;;;;;6.77;100.00;162336.34;5071120;28;20515;-58
2023/04/12 06:22:05;;;;;;;8.35;4.32;;;;;;;6.75;100.00;162329.56;5072599;28;20387;-58
2023/04/12 06:24:30;;;;;;;6.70;3.88;;;;;;;6.78;100.00;162337.66;5070661;28;20037;-59
2023/04/12 06:26:56;;;;;;;8.45;3.80;;;;;;;6.62;100.00;162297.28;5072409;28;20028;-59
2023/04/12 06:29:21;;;;;;;5.90;4.15;;;;;;;6.78;100.00;162337.66;5071177;28;20037;-58
2023/04/12 06:31:47;;;;;;;5.60;3.50;;;;;;;6.75;100.00;162329.56;5072934;28;20031;-58
2023/04/12 06:34:12;;;;;;;7.13;4.45;;;;;;;6.74;100.00;162326.94;5070478;28;20387;-58
2023/04/12 06:36:40;;;;;;;4.22;3.78;;;;;;;6.70;100.00;162317.50;5072510;28;20064;-59
2023/04/12 06:39:06;;;;;;;11.73;5.05;;;;;;;6.73;100.00;162324.22;5070740;28;20099;-58
2023/04/12 06:41:31;;;;;;;6.28;4.38;;;;;;;6.73;100.00;162325.53;5071964;28;20043;-58
2023/04/12 06:43:57;;;;;;;9.15;5.80;;;;;;;6.73;100.00;162325.53;5071844;28;20103;-58
2023/04/12 06:46:28;;;;;;;11.00;4.53;;;;;;;6.74;100.00;162326.94;5070742;28;20040;-58
2023/04/12 06:48:54;;;;;;;9.07;5.65;;;;;;;6.78;100.00;162337.66;5071915;28;20032;-59
2023/04/12 06:51:19;;;;;;;7.65;6.13;;;;;;;6.79;100.00;162340.38;5070741;28;20089;-58
2023/04/12 06:53:45;;;;;;;6.07;4.13;;;;;;;6.79;100.00;162340.38;5072304;28;20031;-59
2023/04/12 06:56:10;;;;;;;9.23;4.15;;;;;;;6.77;100.00;162334.97;5069980;28;20079;-58
2023/04/12 06:58:35;;;;;;;10.27;5.90;;;;;;;6.76;100.00;162332.28;5070994;28;20278;-59
2023/04/12 07:01:05;;;;;;;5.07;4.45;;;;;;;6.73;100.00;162325.53;5069999;28;20059;-58
2023/04/12 07:03:32;;;;;;;5.50;4.60;;;;;;;6.70;100.00;162317.50;5068944;28;20718;-58
2023/04/12 07:05:58;;;;;;;6.47;5.43;;;;;;;6.87;100.00;162361.91;5067764;28;20056;-59
2023/04/12 07:08:24;;;;;;;5.47;4.10;;;;;;;6.87;100.00;162360.53;5071623;28;20024;-58
2023/04/12 07:10:53;;;;;;;7.78;4.32;;;;;;;6.95;100.00;162383.47;5069791;28;20032;-58
2023/04/12 07:13:18;;;;;;;;;;;;;;;6.92;100.00;162375.38;5072001;28;20028;-58
2023/04/12 07:15:43;;;;;;;5.43;4.43;;;;;;;6.93;100.00;162376.69;5070161;28;19920;-59
2023/04/12 07:18:08;;;;;;;12.43;4.90;;;;;;;6.93;100.00;162376.69;5070880;28;20823;-58
2023/04/12 07:20:34;;;;;;;5.45;4.70;;;;;;;6.94;100.00;162380.78;5069863;28;20543;-58
2023/04/12 07:22:59;;;;;;;5.88;5.05;;;;;;;6.95;100.00;162383.47;5070715;28;20028;-58
2023/04/12 07:25:24;;;;;;;8.88;4.95;;;;;;;6.96;100.00;162386.13;5069274;28;20044;-58
2023/04/12 07:27:50;;;;;;;6.70;5.28;;;;;;;6.93;100.00;162378.06;5071112;28;20035;-58
2023/04/12 07:30:15;;;;;;;9.25;6.55;;;;;;;6.98;100.00;162391.53;5069574;28;20040;-58
2023/04/12 07:32:41;;;;;;;9.75;5.38;;;;;;;6.99;100.00;162392.91;5071115;28;20039;-59
2023/04/12 07:35:07;;;;;;;6.45;5.15;;;;;;;6.99;100.00;162394.22;5069533;28;20036;-58
2023/04/12 07:37:32;;;;;;;6.53;4.82;;;;;;;7.02;100.00;162399.63;5070821;28;20028;-58
2023/04/12 07:39:57;;;;;;;5.60;5.10;;;;;;;7.02;100.00;162399.63;5069145;28;20037;-59
2023/04/12 07:42:22;;;;;;;10.50;6.07;;;;;;;7.01;100.00;162396.91;5070606;28;20025;-58
2023/04/12 07:44:48;;;;;;;9.88;4.68;;;;;;;7.00;100.00;162395.53;5069289;28;20506;-59
2023/04/12 07:47:13;;;;;;;10.60;5.80;;;;;;;7.00;100.00;162395.53;5070408;28;20384;-58
2023/04/12 07:49:38;;;;;;;6.85;6.15;;;;;;;7.02;100.00;162399.63;5066981;28;20036;-58
2023/04/12 07:52:04;;;;;;;6.93;6.18;;;;;;;7.01;100.00;162396.91;5050655;28;20028;-58
2023/04/12 07:54:29;;;;;;;6.20;5.10;;;;;;;7.10;100.00;162422.50;5049751;28;20065;-58
2023/04/12 07:56:59;;;;;;;8.75;7.13;;;;;;;7.14;100.00;162433.31;5068466;28;20032;-58
2023/04/12 07:59:25;;;;;;;10.68;7.65;;;;;;;7.19;100.00;162444.06;5069053;28;20491;-58
2023/04/12 08:01:50;;;;;;;12.32;7.20;;;;;;;7.18;100.00;162442.72;5069929;28;20027;-58
2023/04/12 08:04:15;;;;;;;15.40;7.32;;;;;;;7.23;100.00;162456.19;5069387;28;20024;-58
2023/04/12 08:06:41;;;;;;;7.97;6.72;;;;;;;7.28;100.00;162469.63;5070632;28;20479;-58
2023/04/12 08:09:07;;;;;;;10.50;6.35;;;;;;;7.27;100.00;162466.94;5068464;28;20020;-58
2023/04/12 08:11:34;;;;;;;7.55;6.82;;;;;;;7.35;100.00;162485.78;5070451;28;20024;-58
2023/04/12 08:13:59;;;;;;;9.23;7.00;;;;;;;7.41;100.00;162502.00;5068685;28;20020;-57
2023/04/12 08:16:25;;;;;;;12.30;8.43;;;;;;;7.40;100.00;162499.28;5070092;28;20058;-58
2023/04/12 08:18:50;;;;;;;8.85;7.97;;;;;;;7.59;100.00;162549.13;5070559;28;20020;-58
2023/04/12 08:21:16;;;;;;;9.18;7.30;;;;;;;7.71;100.00;162580.09;5066989;28;20295;-58
2023/04/12 08:23:41;;;;;;;10.10;8.70;;;;;;;7.73;100.00;162585.47;5067923;28;20487;-58
2023/04/12 08:26:06;;;;;;;9.98;8.80;;;;;;;7.73;100.00;162586.88;5067487;28;20044;-58
2023/04/12 08:28:32;;;;;;;11.07;9.40;;;;;;;7.77;100.00;162596.28;5070373;28;20521;-58
2023/04/12 08:30:58;;;;;;;9.98;9.15;;;;;;;7.83;100.00;162612.44;5068176;28;20422;-58
2023/04/12 08:33:23;;;;;;;10.07;9.07;;;;;;;7.87;100.00;162623.22;5070807;28;20065;-58
2023/04/12 08:35:49;;;;;;;12.23;11.02;;;;;;;7.91;100.00;162632.63;5068667;28;20037;-57
2023/04/12 08:38:15;;;;;;;11.82;10.13;;;;;;;7.90;100.00;162629.94;5069940;28;20360;-58
2023/04/12 08:40:42;;;;;;;14.27;12.90;;;;;;;7.94;100.00;162642.06;5068483;28;20033;-58
2023/04/12 08:43:10;;;;;;;12.85;11.50;;;;;;;8.02;100.00;162660.94;5070064;28;20449;-58
2023/04/12 08:45:36;;;;;;;12.45;11.35;;;;;;;8.00;100.00;162656.91;5068473;28;20098;-58
2023/04/12 08:48:03;;;;;;;14.23;12.32;;;;;;;7.98;100.00;162650.19;5069938;28;20111;-58
2023/04/12 08:50:30;;;;;;;13.95;11.80;;;;;;;7.94;100.00;162640.75;5068645;28;20036;-58
2023/04/12 08:52:57;;;;;;;14.07;12.60;;;;;;;7.88;100.00;162625.91;5069548;28;20021;-58
2023/04/12 08:55:22;;;;;;;15.68;14.10;;;;;;;7.92;100.00;162636.72;5068514;28;20067;-58
2023/04/12 08:57:48;;;;;;;13.25;12.05;;;;;;;7.87;100.00;162621.88;5070185;28;20498;-58
2023/04/12 09:00:14;;;;;;;16.15;14.45;;;;;;;7.80;100.00;162603.03;5067834;28;20058;-58
2023/04/12 09:02:44;;;;;;;21.00;16.23;;;;;;;7.89;100.00;162628.63;5071695;28;20031;-58
2023/04/12 09:05:11;;;;;;;15.73;13.05;;;;;;;7.88;100.00;162624.59;5072266;28;20142;-58
2023/04/12 09:07:36;;;;;;;18.00;13.02;;;;;;;7.88;100.00;162625.91;5073831;28;20250;-58
2023/04/12 09:10:03;;;;;;;16.90;15.25;;;;;;;7.86;100.00;162619.19;5072344;28;20404;-58
2023/04/12 09:12:29;;;;;;;15.80;14.15;;;;;;;7.87;100.00;162623.22;5073997;28;20016;-58
2023/04/12 09:15:08;;;;;;;16.65;14.88;;;;;;;7.89;100.00;162627.28;5070879;28;20072;-58
2023/04/12 09:17:37;;;;;;;14.20;12.23;;;;;;;7.88;100.00;162624.59;5073134;28;20506;-58
2023/04/12 09:20:23;;;;;;;16.15;14.57;;;;;;;7.96;100.00;162644.78;5067967;28;20082;-58
2023/04/12 09:22:49;;;;;;;16.50;14.77;;;;;;;8.03;100.00;162663.63;5073495;28;20027;-58
2023/04/12 09:25:15;;;;;;;15.70;14.00;;;;;;;8.08;100.00;162677.09;5071801;28;20037;-58
2023/04/12 09:27:51;;;;;;;16.77;15.18;;;;;;;8.12;100.00;162687.91;5072917;28;20063;-58
2023/04/12 09:30:18;;;;;;;21.00;15.43;;;;;;;7.98;100.00;162650.19;5068111;28;20078;-58
2023/04/12 09:32:44;;;;;;;17.55;14.07;;;;;;;8.04;100.00;162667.66;5073084;28;20021;-58
2023/04/12 09:35:10;;;;;;;19.48;11.80;;;;;;;8.19;100.00;162706.78;5071818;28;20063;-57
2023/04/12 09:37:35;;;;;;;11.52;10.40;;;;;;;8.31;100.00;162736.41;5072952;28;20028;-57
2023/04/12 09:40:06;;;;;;;12.93;8.73;;;;;;;8.42;100.00;162766.09;5071459;28;20052;-56
2023/04/12 09:42:32;;;;;;;9.27;7.50;;;;;;;8.48;100.00;162782.28;5073369;28;20032;-57
2023/04/12 09:45:00;;;;;;;12.05;6.32;;;;;;;8.53;100.00;162795.75;5071070;28;20044;-58
2023/04/12 09:47:37;;;;;;;12.60;7.07;;;;;;;8.56;100.00;162803.88;5073162;28;20123;-58
2023/04/12 09:50:04;;;;;;;12.23;7.05;;;;;;;8.72;100.00;162844.31;5071719;28;20064;-58
2023/04/12 09:52:36;;;;;;;11.13;7.03;;;;;;;8.79;100.00;162863.19;5072917;28;20103;-58
2023/04/12 09:55:02;;;;;;;15.40;7.72;;;;;;;8.89;100.00;162888.81;5071671;28;20059;-58
2023/04/12 09:57:29;;;;;;;8.55;5.72;;;;;;;9.05;100.00;162931.97;5073188;28;20016;-57
2023/04/12 09:59:59;;;;;;;9.63;4.60;;;;;;;9.15;100.00;162956.25;5070998;28;20071;-58
2023/04/12 10:02:26;;;;;;;10.75;5.55;;;;;;;9.40;100.00;163020.94;5073192;28;20021;-58
2023/04/12 10:04:53;;;;;;;7.32;4.50;;;;;;;9.74;100.00;163110.00;5071500;28;20085;-58
2023/04/12 10:07:18;;;;;;;7.15;5.28;;;;;;;9.96;100.00;163168.00;5072624;28;20024;-58
2023/04/12 10:09:45;;;;;;;10.18;4.40;;;;;;;10.05;100.00;163192.28;5071582;28;20468;-58
2023/04/12 10:12:10;;;;;;;8.40;4.32;;;;;;;9.98;100.00;163173.41;5072723;28;20071;-58
2023/04/12 10:14:36;;;;;;;14.52;5.30;;;;;;;10.12;100.00;163209.84;5072577;28;20036;-57
2023/04/12 10:17:03;;;;;;;7.75;3.10;;;;;;;10.15;100.00;163219.28;5076754;28;20476;-58
2023/04/12 10:19:30;;;;;;;4.55;3.67;;;;;;;10.29;100.00;163254.38;5071125;28;20405;-57
2023/04/12 10:21:56;;;;;;;9.15;3.55;;;;;;;10.42;100.00;163289.50;5083065;28;20510;-58
2023/04/12 10:24:26;;;;;;;13.95;4.75;;;;;;;10.71;100.00;163363.75;5071319;28;20044;-58
2023/04/12 10:26:54;;;;;;;7.35;3.65;;;;;;;10.89;100.00;163411.00;5072194;28;20032;-58
2023/04/12 10:29:35;;;;;;;10.20;4.23;;;;;;;11.09;100.00;163465.00;5075352;28;20049;-58
2023/04/12 10:32:21;;;;;;;9.27;3.20;;;;;;;11.23;100.00;163500.09;5073657;28;20131;-58
2023/04/12 10:34:57;;;;;;;9.18;2.90;;;;;;;10.87;100.00;163405.59;5071294;28;20032;-57
2023/04/12 10:38:01;;;;;;;9.75;4.32;;;;;;;11.25;100.00;163505.50;5072285;28;20111;-58
2023/04/12 10:40:31;;;;;;;11.57;4.53;;;;;;;11.63;100.00;163604.06;5085309;28;20062;-58
2023/04/12 10:43:21;;;;;;;7.72;3.40;;;;;;;11.59;100.00;163596.00;5092501;28;20423;-58
2023/04/12 10:45:48;;;;;;;10.60;3.45;;;;;;;11.79;100.00;163645.97;5090660;28;20097;-58
2023/04/12 10:48:49;;;;;;;6.18;3.85;;;;;;;12.14;100.00;163737.88;5092148;28;20020;-57
2023/04/12 10:51:24;;;;;;;8.45;3.15;;;;;;;12.12;100.00;163732.47;5090394;28;20044;-57
2023/04/12 10:53:50;;;;;;;13.38;3.03;;;;;;;12.02;100.00;163708.19;5092585;28;20110;-57
2023/04/12 10:56:30;;;;;;;5.80;2.95;;;;;;;12.03;100.00;163710.84;5090838;28;20487;-58
2023/04/12 10:59:08;;;;;;;16.92;4.10;;;;;;;12.05;100.00;163714.94;5091623;28;20024;-58
2023/04/12 11:01:35;;;;;;;10.48;3.53;;;;;;;11.99;100.00;163700.06;5090768;28;20036;-58
2023/04/12 11:04:20;;;;;;;7.68;3.80;;;;;;;12.05;100.00;163716.25;5090418;28;20152;-57
2023/04/12 11:06:51;;;;;;;7.00;2.38;;;;;;;12.19;100.00;163751.38;5091501;28;20210;-58
2023/04/12 11:09:27;;;;;;;16.50;3.90;;;;;;;12.51;100.00;163835.16;5090523;28;20521;-58
2023/04/12 11:11:57;;;;;;;12.45;3.95;;;;;;;12.74;100.00;163895.97;5092012;28;20049;-58
2023/04/12 11:14:27;;;;;;;11.35;4.38;;;;;;;12.94;100.00;163948.69;5090055;28;20036;-58
2023/04/12 11:17:07;;;;;;;9.98;3.17;;;;;;;12.98;100.00;163959.53;5091581;28;20024;-58
2023/04/12 11:19:44;;;;;;;11.02;3.40;;;;;;;12.77;100.00;163904.09;5090295;28;20047;-58
2023/04/12 11:22:15;;;;;;;18.73;4.88;;;;;;;12.67;100.00;163878.44;5091349;28;20429;-58
2023/04/12 11:24:51;;;;;;;10.98;4.80;;;;;;;12.47;100.00;163824.38;5089605;28;20119;-57